createdAt,value
2022-10-08T00:01:30.705Z,10.94
2022-10-08T00:03:58.881Z,10.89
2022-10-08T00:06:30.234Z,10.84
2022-10-08T00:09:05.520Z,10.76
2022-10-08T00:11:37.725Z,10.83
2022-10-08T00:14:06.458Z,10.78
2022-10-08T00:16:39.996Z,10.86
2022-10-08T00:19:13.747Z,10.79
2022-10-08T00:21:43.993Z,10.76
2022-10-08T00:24:15.637Z,10.64
2022-10-08T00:26:44.801Z,10.73
2022-10-08T00:29:16.469Z,10.76
2022-10-08T00:31:47.295Z,10.80
2022-10-08T00:34:21.065Z,10.78
2022-10-08T00:36:52.950Z,10.66
2022-10-08T00:39:23.352Z,10.70
2022-10-08T00:41:55.310Z,10.68
2022-10-08T00:44:51.657Z,10.69
2022-10-08T00:47:42.670Z,10.78
2022-10-08T00:50:24.799Z,10.64
2022-10-08T00:53:10.947Z,10.58
2022-10-08T00:55:43.785Z,10.48
2022-10-08T00:58:23.025Z,10.70
2022-10-08T01:00:51.191Z,10.69
2022-10-08T01:03:19.244Z,10.71
2022-10-08T01:06:20.825Z,10.75
2022-10-08T01:09:16.494Z,10.75
2022-10-08T01:12:08.736Z,10.74
2022-10-08T01:14:57.744Z,10.69
2022-10-08T01:17:44.124Z,10.59
2022-10-08T01:20:33.764Z,10.51
2022-10-08T01:23:23.457Z,10.50
2022-10-08T01:26:23.984Z,10.58
2022-10-08T01:28:57.077Z,10.61
2022-10-08T01:31:31.358Z,10.69
2022-10-08T01:34:05.514Z,10.71
2022-10-08T01:36:45.623Z,10.82
2022-10-08T01:39:17.865Z,10.89
2022-10-08T01:45:09.560Z,11.14
2022-10-08T01:47:42.351Z,10.98
2022-10-08T01:50:16.257Z,11.07
2022-10-08T01:52:55.850Z,10.93
2022-10-08T01:55:36.901Z,11.19
2022-10-08T01:58:39.969Z,11.22
2022-10-08T02:01:16.187Z,11.15
2022-10-08T02:04:04.177Z,11.15
2022-10-08T02:06:37.157Z,11.08
2022-10-08T02:09:05.959Z,11.22
2022-10-08T02:11:35.841Z,11.16
2022-10-08T02:14:05.847Z,11.27
2022-10-08T02:16:37.262Z,11.39
2022-10-08T02:19:28.017Z,11.47
2022-10-08T02:21:59.787Z,11.41
2022-10-08T02:24:44.690Z,11.44
2022-10-08T02:27:15.198Z,11.56
2022-10-08T02:29:51.793Z,11.46
2022-10-08T02:32:30.334Z,11.46
2022-10-08T02:35:07.394Z,11.38
2022-10-08T02:37:48.093Z,11.42
2022-10-08T02:40:17.684Z,11.30
2022-10-08T02:42:53.016Z,11.34
2022-10-08T02:45:34.979Z,11.41
2022-10-08T02:48:15.255Z,11.39
2022-10-08T02:50:46.839Z,11.41
2022-10-08T02:53:18.253Z,11.42
2022-10-08T02:55:57.432Z,11.24
2022-10-08T02:58:26.376Z,11.19
2022-10-08T03:01:07.062Z,11.45
2022-10-08T03:03:45.618Z,11.22
2022-10-08T03:06:16.146Z,11.22
2022-10-08T03:08:49.301Z,11.31
2022-10-08T03:11:17.453Z,11.16
2022-10-08T03:13:48.712Z,11.05
2022-10-08T03:16:21.263Z,10.99
2022-10-08T03:18:52.237Z,11.09
2022-10-08T03:21:20.291Z,11.06
2022-10-08T03:23:48.199Z,10.88
2022-10-08T03:26:18.736Z,10.89
2022-10-08T03:28:46.639Z,10.80
2022-10-08T03:31:14.464Z,10.73
2022-10-08T03:33:42.336Z,10.73
2022-10-08T03:36:10.092Z,10.70
2022-10-08T03:38:37.845Z,10.60
2022-10-08T03:41:05.753Z,10.57
2022-10-08T03:43:34.187Z,10.66
2022-10-08T03:46:03.210Z,10.63
2022-10-08T03:48:31.655Z,10.57
2022-10-08T03:51:10.902Z,10.61
2022-10-08T03:53:40.474Z,10.65
2022-10-08T03:56:11.682Z,10.58
2022-10-08T03:58:39.579Z,10.60
2022-10-08T04:01:12.748Z,10.69
2022-10-08T04:03:41.140Z,10.60
2022-10-08T04:06:09.799Z,10.58
2022-10-08T04:08:37.619Z,10.70
2022-10-08T04:11:08.532Z,10.66
2022-10-08T04:13:37.684Z,10.75
2022-10-08T04:16:10.223Z,10.86
2022-10-08T04:18:38.545Z,11.07
2022-10-08T04:21:09.915Z,11.22
2022-10-08T04:23:39.210Z,11.22
2022-10-08T04:26:09.300Z,11.37
2022-10-08T04:28:41.480Z,11.44
2022-10-08T04:31:13.898Z,11.40
2022-10-08T04:33:42.001Z,11.59
2022-10-08T04:36:15.883Z,11.54
2022-10-08T04:38:44.421Z,11.52
2022-10-08T04:41:16.283Z,11.69
2022-10-08T04:43:45.253Z,11.79
2022-10-08T04:46:16.546Z,11.70
2022-10-08T04:48:52.620Z,11.68
2022-10-08T04:51:22.742Z,11.76
2022-10-08T04:53:51.555Z,11.81
2022-10-08T04:56:25.522Z,11.75
2022-10-08T04:58:55.253Z,11.73
2022-10-08T05:01:24.209Z,11.77
2022-10-08T05:03:54.547Z,11.83
2022-10-08T05:06:25.856Z,12.02
2022-10-08T05:08:54.120Z,12.02
2022-10-08T05:11:25.427Z,12.05
2022-10-08T05:13:57.069Z,12.10
2022-10-08T05:16:26.228Z,12.20
2022-10-08T05:18:54.463Z,12.24
2022-10-08T05:21:25.606Z,12.27
2022-10-08T05:24:02.443Z,12.30
2022-10-08T05:26:58.613Z,12.39
2022-10-08T05:29:29.578Z,12.55
2022-10-08T05:31:57.593Z,12.53
2022-10-08T05:34:25.508Z,12.61
2022-10-08T05:36:53.451Z,12.58
2022-10-08T05:39:21.561Z,12.78
2022-10-08T05:41:49.319Z,12.82
2022-10-08T05:44:17.218Z,12.84
2022-10-08T05:46:45.147Z,12.89
2022-10-08T05:49:23.435Z,13.03
2022-10-08T05:51:51.604Z,12.98
2022-10-08T05:54:20.254Z,12.93
2022-10-08T05:56:48.025Z,12.99
2022-10-08T05:59:24.430Z,12.82
2022-10-08T06:01:52.403Z,12.61
2022-10-08T06:04:20.448Z,12.60
2022-10-08T06:06:48.295Z,12.49
2022-10-08T06:09:18.620Z,12.48
2022-10-08T06:11:47.220Z,12.70
2022-10-08T06:14:20.546Z,13.23
2022-10-08T06:16:48.702Z,13.86
2022-10-08T06:19:16.627Z,14.27
2022-10-08T06:21:44.884Z,14.23
2022-10-08T06:24:13.407Z,14.32
2022-10-08T06:26:42.910Z,14.47
2022-10-08T06:29:16.951Z,14.57
2022-10-08T06:31:46.412Z,14.90
2022-10-08T06:34:14.716Z,14.90
2022-10-08T06:36:42.537Z,14.93
2022-10-08T06:39:13.893Z,14.95
2022-10-08T06:41:42.659Z,15.12
2022-10-08T06:44:13.648Z,15.34
2022-10-08T06:46:42.154Z,15.35
2022-10-08T06:49:11.633Z,15.44
2022-10-08T06:51:39.741Z,15.56
2022-10-08T06:54:08.712Z,15.77
2022-10-08T06:56:38.321Z,16.05
2022-10-08T06:59:07.144Z,16.36
2022-10-08T07:01:36.333Z,16.57
2022-10-08T07:04:05.723Z,16.89
2022-10-08T07:06:33.878Z,17.14
2022-10-08T07:09:02.561Z,17.28
2022-10-08T07:11:33.471Z,17.59
2022-10-08T07:14:01.517Z,17.49
2022-10-08T07:16:30.076Z,17.56
2022-10-08T07:18:58.978Z,17.86
2022-10-08T07:21:28.435Z,18.27
2022-10-08T07:23:58.465Z,18.57
2022-10-08T07:26:28.625Z,19.03
2022-10-08T07:28:58.047Z,18.92
2022-10-08T07:31:34.638Z,18.78
2022-10-08T07:34:06.766Z,18.65
2022-10-08T07:36:35.017Z,18.63
2022-10-08T07:39:11.312Z,18.54
2022-10-08T07:41:39.026Z,18.59
2022-10-08T07:44:08.149Z,18.63
2022-10-08T07:46:37.468Z,18.77
2022-10-08T07:49:05.511Z,18.85
2022-10-08T07:51:35.071Z,18.92
2022-10-08T07:54:05.324Z,18.64
2022-10-08T07:56:34.460Z,18.69
2022-10-08T07:59:04.426Z,18.70
2022-10-08T08:01:33.608Z,19.00
2022-10-08T08:04:05.219Z,19.01
2022-10-08T08:06:34.403Z,18.84
2022-10-08T08:09:02.621Z,18.75
2022-10-08T08:11:30.832Z,18.86
2022-10-08T08:13:59.066Z,18.89
2022-10-08T08:16:28.572Z,18.74
2022-10-08T08:19:00.006Z,18.82
2022-10-08T08:21:33.915Z,19.04
2022-10-08T08:24:07.568Z,19.25
2022-10-08T08:26:38.196Z,19.17
2022-10-08T08:29:10.275Z,19.11
2022-10-08T08:31:41.314Z,19.26
2022-10-08T08:34:12.395Z,19.50
2022-10-08T08:36:43.739Z,19.48
2022-10-08T08:39:26.084Z,19.52
2022-10-08T08:41:57.015Z,19.68
2022-10-08T08:44:32.582Z,20.24
2022-10-08T08:47:06.042Z,20.30
2022-10-08T08:49:39.846Z,20.97
2022-10-08T08:52:08.793Z,21.25
2022-10-08T08:54:36.507Z,22.16
2022-10-08T08:57:38.921Z,23.21
2022-10-08T09:00:18.543Z,24.09
2022-10-08T09:03:01.293Z,25.48
2022-10-08T09:05:33.891Z,26.50
2022-10-08T09:08:42.524Z,27.71
2022-10-08T09:11:14.201Z,28.58
2022-10-08T09:13:51.158Z,28.77
2022-10-08T09:16:18.984Z,28.39
2022-10-08T09:18:54.695Z,28.36
2022-10-08T09:21:25.337Z,28.07
2022-10-08T09:23:53.273Z,28.62
2022-10-08T09:26:23.637Z,28.44
2022-10-08T09:28:56.126Z,28.20
2022-10-08T09:31:33.851Z,27.99
2022-10-08T09:34:25.154Z,28.32
2022-10-08T09:37:02.196Z,28.37
2022-10-08T09:39:33.085Z,28.04
2022-10-08T09:42:19.399Z,28.23
2022-10-08T09:44:51.513Z,27.72
2022-10-08T09:47:24.638Z,27.30
2022-10-08T09:50:16.595Z,26.86
2022-10-08T09:52:45.783Z,27.13
2022-10-08T09:55:16.479Z,27.69
2022-10-08T09:57:50.008Z,28.15
2022-10-08T10:00:35.496Z,28.04
2022-10-08T10:03:06.389Z,26.55
2022-10-08T10:05:36.954Z,25.56
2022-10-08T10:08:06.334Z,24.84
2022-10-08T10:10:47.019Z,24.60
2022-10-08T10:13:17.760Z,24.33
2022-10-08T10:15:53.569Z,23.87
2022-10-08T10:18:59.641Z,23.74
2022-10-08T10:21:48.920Z,23.94
2022-10-08T10:24:46.918Z,23.67
2022-10-08T10:27:28.458Z,23.55
2022-10-08T10:30:21.890Z,23.51
2022-10-08T10:32:57.638Z,23.58
2022-10-08T10:35:31.559Z,23.61
2022-10-08T10:38:19.587Z,23.77
2022-10-08T10:41:19.479Z,24.08
2022-10-08T10:44:08.832Z,24.06
2022-10-08T10:46:49.687Z,23.60
2022-10-08T10:49:24.951Z,23.38
2022-10-08T10:52:13.769Z,23.50
2022-10-08T10:54:50.492Z,23.52
2022-10-08T10:57:30.511Z,23.58
2022-10-08T11:00:04.969Z,23.36
2022-10-08T11:02:50.334Z,23.12
2022-10-08T11:05:23.418Z,22.66
2022-10-08T11:08:12.772Z,22.55
2022-10-08T11:10:52.969Z,22.53
2022-10-08T11:13:53.705Z,22.46
2022-10-08T11:16:48.844Z,22.24
2022-10-08T11:19:22.863Z,22.04
2022-10-08T11:22:21.601Z,21.86
2022-10-08T11:25:05.949Z,21.89
2022-10-08T11:28:06.168Z,21.46
2022-10-08T11:30:49.348Z,21.11
2022-10-08T11:33:18.515Z,20.92
2022-10-08T11:35:50.114Z,20.93
2022-10-08T11:38:29.642Z,20.79
2022-10-08T11:41:13.458Z,20.63
2022-10-08T11:43:58.877Z,20.46
2022-10-08T11:46:31.790Z,20.40
2022-10-08T11:49:11.936Z,20.16
2022-10-08T11:51:42.161Z,20.09
2022-10-08T11:54:32.228Z,20.10
2022-10-08T11:57:18.908Z,20.04
2022-10-08T12:00:19.453Z,20.05
2022-10-08T12:02:53.308Z,20.03
2022-10-08T12:05:23.857Z,20.05
2022-10-08T12:07:54.882Z,20.07
2022-10-08T12:10:30.054Z,20.13
2022-10-08T12:13:01.869Z,20.47
2022-10-08T12:15:33.259Z,20.53
2022-10-08T12:18:02.213Z,20.73
2022-10-08T12:20:35.415Z,20.76
2022-10-08T12:23:06.465Z,20.85
2022-10-08T12:25:44.203Z,20.99
2022-10-08T12:28:21.127Z,21.19
2022-10-08T12:30:51.787Z,21.28
2022-10-08T12:33:20.946Z,21.21
2022-10-08T12:36:05.698Z,21.16
2022-10-08T12:38:51.247Z,21.15
2022-10-08T12:41:49.200Z,21.08
2022-10-08T12:44:45.163Z,20.91
2022-10-08T12:47:31.439Z,20.93
2022-10-08T12:50:18.223Z,20.99
2022-10-08T12:52:46.697Z,21.00
2022-10-08T12:55:18.863Z,20.95
2022-10-08T12:57:49.082Z,21.08
2022-10-08T13:00:24.963Z,20.99
2022-10-08T13:03:01.045Z,20.92
2022-10-08T13:05:40.879Z,20.90
2022-10-08T13:08:18.951Z,20.72
2022-10-08T13:10:46.933Z,20.76
2022-10-08T13:13:33.444Z,20.76
2022-10-08T13:16:10.257Z,20.68
2022-10-08T13:18:41.863Z,20.80
2022-10-08T13:21:31.426Z,20.92
2022-10-08T13:24:12.300Z,20.91
2022-10-08T13:26:52.600Z,20.89
2022-10-08T13:29:28.787Z,20.64
2022-10-08T13:32:00.230Z,20.45
2022-10-08T13:34:35.048Z,20.16
2022-10-08T13:37:07.415Z,19.96
2022-10-08T13:39:41.201Z,19.97
2022-10-08T13:42:10.359Z,20.09
2022-10-08T13:44:40.647Z,20.34
2022-10-08T13:47:16.538Z,20.73
2022-10-08T13:49:45.211Z,20.77
2022-10-08T13:52:24.884Z,20.65
2022-10-08T13:54:59.775Z,20.58
2022-10-08T13:57:27.697Z,20.45
2022-10-08T13:59:56.096Z,20.23
2022-10-08T14:02:23.892Z,20.18
2022-10-08T14:04:53.620Z,20.16
2022-10-08T14:07:29.203Z,19.93
2022-10-08T14:09:59.962Z,20.04
2022-10-08T14:12:32.529Z,19.99
2022-10-08T14:15:01.023Z,20.11
2022-10-08T14:17:30.034Z,20.02
2022-10-08T14:19:57.769Z,19.72
2022-10-08T14:22:25.595Z,19.59
2022-10-08T14:24:54.231Z,19.57
2022-10-08T14:27:22.028Z,19.66
2022-10-08T14:29:49.945Z,19.59
2022-10-08T14:32:17.889Z,19.48
2022-10-08T14:34:45.652Z,19.47
2022-10-08T14:37:14.025Z,19.54
2022-10-08T14:39:41.994Z,19.52
2022-10-08T14:42:09.698Z,19.45
2022-10-08T14:44:37.396Z,19.29
2022-10-08T14:47:05.547Z,19.31
2022-10-08T14:49:33.529Z,19.30
2022-10-08T14:52:01.277Z,19.29
2022-10-08T14:54:29.404Z,19.20
2022-10-08T14:56:57.204Z,19.29
2022-10-08T14:59:25.278Z,19.06
2022-10-08T15:01:53.849Z,18.91
2022-10-08T15:04:21.845Z,18.85
2022-10-08T15:06:49.698Z,18.69
2022-10-08T15:09:17.798Z,18.60
2022-10-08T15:11:45.874Z,18.52
2022-10-08T15:14:14.566Z,18.32
2022-10-08T15:16:43.554Z,18.27
2022-10-08T15:19:11.420Z,18.19
2022-10-08T15:21:39.699Z,18.04
2022-10-08T15:24:07.944Z,17.93
2022-10-08T15:26:35.981Z,17.99
2022-10-08T15:29:04.060Z,17.77
2022-10-08T15:31:32.060Z,17.57
2022-10-08T15:34:01.711Z,17.47
2022-10-08T15:36:30.717Z,17.38
2022-10-08T15:39:12.113Z,17.35
2022-10-08T15:41:42.492Z,17.26
2022-10-08T15:44:19.905Z,17.21
2022-10-08T15:46:48.979Z,17.28
2022-10-08T15:49:17.149Z,17.15
2022-10-08T15:51:44.911Z,17.08
2022-10-08T15:54:14.898Z,17.10
2022-10-08T15:56:42.807Z,17.07
2022-10-08T15:59:10.590Z,16.95
2022-10-08T16:01:38.400Z,17.04
2022-10-08T16:04:06.328Z,17.00
2022-10-08T16:06:36.265Z,16.96
2022-10-08T16:09:05.230Z,17.10
2022-10-08T16:11:35.116Z,17.16
2022-10-08T16:14:09.633Z,17.09
2022-10-08T16:16:38.727Z,17.15
2022-10-08T16:19:09.225Z,17.10
2022-10-08T16:21:37.539Z,17.18
2022-10-08T16:24:06.632Z,17.24
2022-10-08T16:26:35.573Z,17.13
2022-10-08T16:29:06.911Z,17.18
2022-10-08T16:31:36.386Z,17.26
2022-10-08T16:34:10.715Z,17.24
2022-10-08T16:36:39.559Z,17.35
2022-10-08T16:39:08.576Z,17.40
2022-10-08T16:41:37.956Z,17.41
2022-10-08T16:44:12.559Z,17.40
2022-10-08T16:46:48.559Z,17.38
2022-10-08T16:49:27.173Z,17.36
2022-10-08T16:52:04.646Z,17.20
2022-10-08T16:54:32.963Z,17.16
2022-10-08T16:57:01.339Z,16.92
2022-10-08T16:59:30.643Z,16.76
2022-10-08T17:02:00.497Z,16.80
2022-10-08T17:04:30.095Z,16.67
2022-10-08T17:06:58.138Z,16.55
2022-10-08T17:09:26.167Z,16.49
2022-10-08T17:11:54.161Z,16.39
2022-10-08T17:14:22.200Z,16.30
2022-10-08T17:16:50.531Z,16.23
2022-10-08T17:19:18.888Z,16.16
2022-10-08T17:21:46.670Z,16.14
2022-10-08T17:24:14.679Z,16.11
2022-10-08T17:26:42.647Z,16.07
2022-10-08T17:29:12.838Z,16.09
2022-10-08T17:31:41.146Z,15.96
2022-10-08T17:34:09.441Z,15.95
2022-10-08T17:36:40.959Z,15.85
2022-10-08T17:39:13.207Z,15.88
2022-10-08T17:41:42.908Z,15.79
2022-10-08T17:44:11.920Z,15.75
2022-10-08T17:46:46.805Z,15.75
2022-10-08T17:49:19.797Z,15.73
2022-10-08T17:51:48.686Z,15.76
2022-10-08T17:54:22.591Z,15.78
2022-10-08T17:56:50.676Z,15.71
2022-10-08T17:59:20.276Z,15.70
2022-10-08T18:01:48.817Z,15.61
2022-10-08T18:04:18.762Z,15.62
2022-10-08T18:06:48.067Z,15.62
2022-10-08T18:09:19.161Z,15.60
2022-10-08T18:11:51.860Z,15.60
2022-10-08T18:14:20.742Z,15.57
2022-10-08T18:16:49.041Z,15.55
2022-10-08T18:19:18.126Z,15.60
2022-10-08T18:21:46.362Z,15.50
2022-10-08T18:24:14.819Z,15.43
2022-10-08T18:26:42.634Z,15.42
2022-10-08T18:29:13.246Z,15.39
2022-10-08T18:31:43.191Z,15.40
2022-10-08T18:34:15.715Z,15.40
2022-10-08T18:36:44.114Z,15.32
2022-10-08T18:39:17.093Z,15.31
2022-10-08T18:41:50.224Z,15.35
2022-10-08T18:44:22.173Z,15.29
2022-10-08T18:46:51.159Z,15.30
2022-10-08T18:49:23.909Z,15.32
2022-10-08T18:51:51.819Z,15.38
2022-10-08T18:54:19.670Z,15.27
2022-10-08T18:56:47.398Z,15.23
2022-10-08T18:59:16.946Z,15.28
2022-10-08T19:01:47.575Z,15.32
2022-10-08T19:04:20.956Z,15.20
2022-10-08T19:06:50.931Z,15.16
2022-10-08T19:09:19.245Z,15.07
2022-10-08T19:11:49.559Z,15.01
2022-10-08T19:14:19.716Z,14.90
2022-10-08T19:16:47.755Z,14.83
2022-10-08T19:19:24.252Z,14.78
2022-10-08T19:21:54.387Z,14.66
2022-10-08T19:24:26.534Z,14.55
2022-10-08T19:26:56.304Z,14.72
2022-10-08T19:29:29.154Z,14.61
2022-10-08T19:31:57.372Z,14.48
2022-10-08T19:34:26.861Z,14.50
2022-10-08T19:36:55.486Z,14.41
2022-10-08T19:39:27.134Z,14.43
2022-10-08T19:41:55.102Z,14.36
2022-10-08T19:44:22.833Z,14.30
2022-10-08T19:46:51.585Z,14.31
2022-10-08T19:49:20.261Z,14.31
2022-10-08T19:51:48.067Z,14.21
2022-10-08T19:54:16.488Z,14.15
2022-10-08T19:56:44.604Z,14.08
2022-10-08T19:59:13.153Z,14.01
2022-10-08T20:01:42.729Z,14.01
2022-10-08T20:04:10.770Z,13.99
2022-10-08T20:06:41.613Z,13.86
2022-10-08T20:09:14.474Z,13.88
2022-10-08T20:11:44.185Z,13.93
2022-10-08T20:14:13.603Z,13.85
2022-10-08T20:16:42.806Z,13.86
2022-10-08T20:19:28.881Z,13.92
2022-10-08T20:21:56.833Z,13.90
2022-10-08T20:24:24.548Z,13.86
2022-10-08T20:26:52.704Z,13.77
2022-10-08T20:29:23.653Z,13.83
2022-10-08T20:31:55.258Z,13.76
2022-10-08T20:34:31.242Z,13.70
2022-10-08T20:37:02.258Z,13.71
2022-10-08T20:39:30.546Z,13.63
2022-10-08T20:41:59.622Z,13.53
2022-10-08T20:44:27.390Z,13.46
2022-10-08T20:46:55.490Z,13.47
2022-10-08T20:49:23.514Z,13.48
2022-10-08T20:51:51.356Z,13.50
2022-10-08T20:54:19.338Z,13.53
2022-10-08T20:56:47.130Z,13.50
2022-10-08T20:59:17.758Z,13.47
2022-10-08T21:01:46.671Z,13.38
2022-10-08T21:04:14.457Z,13.39
2022-10-08T21:06:44.704Z,13.32
2022-10-08T21:09:13.833Z,13.29
2022-10-08T21:11:42.241Z,13.30
2022-10-08T21:14:10.999Z,13.23
2022-10-08T21:16:40.356Z,13.18
2022-10-08T21:19:12.070Z,13.17
2022-10-08T21:21:40.625Z,13.14
2022-10-08T21:24:09.393Z,13.10
2022-10-08T21:26:39.498Z,13.07
2022-10-08T21:29:10.261Z,13.11
2022-10-08T21:31:39.917Z,13.29
2022-10-08T21:34:08.707Z,13.29
2022-10-08T21:36:39.338Z,13.28
2022-10-08T21:39:09.144Z,13.29
2022-10-08T21:41:37.994Z,13.47
2022-10-08T21:44:07.621Z,13.39
2022-10-08T21:46:41.589Z,13.40
2022-10-08T21:49:18.048Z,13.35
2022-10-08T21:51:46.426Z,13.31
2022-10-08T21:54:15.856Z,13.19
2022-10-08T21:56:44.365Z,13.22
2022-10-08T21:59:15.065Z,13.23
2022-10-08T22:01:45.697Z,13.15
2022-10-08T22:04:21.693Z,13.13
2022-10-08T22:06:54.345Z,13.09
2022-10-08T22:09:26.485Z,12.93
2022-10-08T22:11:55.528Z,12.79
2022-10-08T22:14:23.921Z,12.68
2022-10-08T22:16:52.027Z,12.72
2022-10-08T22:19:20.449Z,12.59
2022-10-08T22:21:48.754Z,12.49
2022-10-08T22:24:16.737Z,12.54
2022-10-08T22:26:46.665Z,12.48
2022-10-08T22:29:15.151Z,12.41
2022-10-08T22:31:43.015Z,12.29
2022-10-08T22:34:11.354Z,12.22
2022-10-08T22:36:41.843Z,12.27
2022-10-08T22:39:09.847Z,12.42
2022-10-08T22:41:38.515Z,12.35
2022-10-08T22:44:06.665Z,12.29
2022-10-08T22:46:39.556Z,12.19
2022-10-08T22:49:10.995Z,12.01
2022-10-08T22:51:39.546Z,11.94
2022-10-08T22:54:08.131Z,11.86
2022-10-08T22:56:36.050Z,11.89
2022-10-08T22:59:04.039Z,11.70
2022-10-08T23:01:32.001Z,11.55
2022-10-08T23:04:00.060Z,11.59
2022-10-08T23:06:33.062Z,11.66
2022-10-08T23:09:04.411Z,11.48
2022-10-08T23:11:32.738Z,11.46
2022-10-08T23:14:01.849Z,11.49
2022-10-08T23:16:31.773Z,11.32
2022-10-08T23:19:02.665Z,11.36
2022-10-08T23:21:30.779Z,11.22
2022-10-08T23:23:59.468Z,11.14
2022-10-08T23:26:27.887Z,11.21
2022-10-08T23:28:58.750Z,11.16
2022-10-08T23:31:36.340Z,10.92
2022-10-08T23:34:05.684Z,10.92
2022-10-08T23:36:36.534Z,10.77
2022-10-08T23:39:05.329Z,10.77
2022-10-08T23:41:33.357Z,10.74
2022-10-08T23:44:01.303Z,10.71
2022-10-08T23:46:30.571Z,10.67
2022-10-08T23:48:59.302Z,10.67
2022-10-08T23:51:28.685Z,10.68
2022-10-08T23:53:56.528Z,10.60
2022-10-08T23:56:24.338Z,10.52
2022-10-08T23:58:52.397Z,10.46
